Etusivu
METAR-TAF:

METAR-TAF

Lentoasemat :

Revelstoke, Brittiläinen Kolumbia, Kanada

Leveyspiiri: 50-58N, Pituuspiiri: 118-11W, korkeus merenpinnasta: 443 m

Tämänhetkinen sää

Tämä raportti tehtiin 51 minuuttia sitten, kello 10.00 UTC
Tuuli 2 kn eri suunnista
Lämpötila -3°C
Kosteus 100%
Ilmanpaine 1023 hPa
Näkyvyys: 14.5 km
selkeää

METAR: CYRV 211000Z AUTO VRB02KT 9SM CLR M03/M03 A3022 RMK SLP254

Aika: 02:51 (10:51 UTC)


TAF: puuttuu

Säähavainnot ja -ennusteet yli 4000 lentoasemalta (METAR- ja TAF-raportit).

Käytössä olevat sääasemat on merkitty karttaan keltaisilla ja punaisilla pisteillä.

Aseta hiiri pisteen päälle nähdäksesi sääaseman nimen.

Klikkaa sitten nähdäksesi säähavainnot ja -ennusteet.

Kartan vaihtaminen: klikkaa mustalla rastilla varustettuja vihreitä pisteitä, niin voit zoomata sisään; viivalla varustettua vihreää pistettä, niin voit zoomata ulos tai vihreitä nuolia, niin pääset viereisille kartoille.


METAR-TAF: